Time Latitude Longitude Accuracy (66% radius in meters) Altitude (meters) Speed (km/hour) Bearing (degrees) Battery (%) GPS flag
07:22:32 57.203683 60.118708 0 0 0 0 1 delete
07:22:31 57.203690 60.118694 0 0 0 0 1 delete
07:22:30 57.203700 60.118671 0 0 0 0 1 delete
07:22:29 57.203711 60.118633 0 0 0 0 1 delete
07:22:28 57.203721 60.118594 0 0 0 0 1 delete
07:22:27 57.203732 60.118553 0 0 0 0 1 delete
07:22:26 57.203742 60.118512 0 0 0 0 1 delete
07:22:25 57.203752 60.118470 0 0 0 0 1 delete
07:22:24 57.203761 60.118429 0 0 0 0 1 delete
07:22:23 57.203771 60.118391 0 0 0 0 1 delete
07:22:22 57.203781 60.118351 0 0 0 0 1 delete
07:22:21 57.203790 60.118315 0 0 0 0 1 delete
07:22:20 57.203797 60.118280 0 0 0 0 1 delete
07:22:19 57.203804 60.118243 0 0 0 0 1 delete
07:22:18 57.203814 60.118203 0 0 0 0 1 delete
07:22:17 57.203823 60.118163 0 0 0 0 1 delete
07:22:16 57.203832 60.118123 0 0 0 0 1 delete
07:22:15 57.203836 60.118075 0 0 0 0 1 delete
07:22:14 57.203838 60.118028 0 0 0 0 1 delete
07:22:13 57.203838 60.117980 0 0 0 0 1 delete
07:22:12 57.203838 60.117933 0 0 0 0 1 delete
07:22:11 57.203835 60.117882 0 0 0 0 1 delete
07:22:10 57.203830 60.117829 0 0 0 0 1 delete
07:22:09 57.203820 60.117779 0 0 0 0 1 delete
07:22:08 57.203811 60.117730 0 0 0 0 1 delete
07:22:07 57.203797 60.117682 0 0 0 0 1 delete
07:22:06 57.203785 60.117633 0 0 0 0 1 delete
07:22:05 57.203773 60.117586 0 0 0 0 1 delete
07:22:04 57.203768 60.117546 0 0 0 0 1 delete
07:22:03 57.203760 60.117509 0 0 0 0 1 delete
07:22:02 57.203753 60.117471 0 0 0 0 1 delete
07:22:01 57.203747 60.117434 0 0 0 0 1 delete
07:22:00 57.203740 60.117401 0 0 0 0 1 delete
07:21:59 57.203733 60.117370 0 0 0 0 1 delete
07:21:58 57.203725 60.117336 0 0 0 0 1 delete
07:21:57 57.203717 60.117304 0 0 0 0 1 delete
07:21:56 57.203708 60.117271 0 0 0 0 1 delete
07:21:55 57.203700 60.117237 0 0 0 0 1 delete
07:21:54 57.203693 60.117203 0 0 0 0 1 delete
07:21:53 57.203686 60.117170 0 0 0 0 1 delete
07:21:52 57.203678 60.117135 0 0 0 0 1 delete
07:21:51 57.203672 60.117097 0 0 0 0 1 delete
07:21:50 57.203668 60.117060 0 0 0 0 1 delete
07:21:49 57.203665 60.117028 0 0 0 0 1 delete
07:21:48 57.203663 60.116998 0 0 0 0 1 delete
07:21:47 57.203659 60.116962 0 0 0 0 1 delete
07:21:46 57.203657 60.116925 0 0 0 0 1 delete
07:21:45 57.203654 60.116890 0 0 0 0 1 delete
07:21:44 57.203652 60.116857 0 0 0 0 1 delete
07:21:43 57.203652 60.116822 0 0 0 0 1 delete